Mountain Mesa, California
Current Conditions -  °F | °C
As of 10:54 PM on Sunday 23 Nov 2014 (Local Time) from KBFL Reporting Station
Clear Clear  
Wind Chill: 49°   Ceiling: Unl
Heat Index: 49°   Visibility: 9mi
Dew Point: 40°   Wind: 0mph
Humidity: 71%   Direction: NA
Pressure: 30.32"   Gusts: NA
Location:  35.6214°N, 118.493°W
Report Text: KBFL 240654Z 00000KT 9SM CLR 09/04 A3032 RMK AO2 SLP265 T00940044
Loading
Personal Weather Stations






























Interactive Weather Map New forecast layout! Learn more

10-Day Weather Forecast

Advertisements
Track Severe Weather on mobile